• Join FlightAware (Why Join?)
  • Login
  • US Flag 
09:29PM EDT


 

Airport Tracker/Info


-or-


 

Live Flight TrackerFlight Track Log ✈ UPS2876 ✈ 17-Jul-2013 ✈ KSDF - KPHX

Flight Track Log - Related Links

Times and Time Zones

All times are in EDT time to prevent confusion due to time zone crossing. See the UPS2876 flight status page for this flight to view local times or setup timezone preferences in your user account.

Time Position Orientation Groundspeed Altitude Reporting Facility
EDT Latitude Longitude Course Direction KTS MPH feet Rate Location/Type
05:30PM 38.2594 -85.8017 267° West 230 265 4,300  Level Indianapolis Center
05:31PM 38.2558 -85.8939 267° West 274 315 7,600 3,240 Climbing Indianapolis Center
05:32PM 38.2397 -85.9892 258° West 273 314 11,100 2,640 Climbing Indianapolis Center
05:37PM 38.1660 -86.6250 258° West 374 430 24,500 2,220 Climbing FlightAware
05:38PM 38.1530 -86.7350 261° West 412 474 25,000 300 Climbing FlightAware
05:39PM 38.1410 -86.8280 261° West 414 476 25,000 660 Level FlightAware
05:40PM 38.1240 -86.9740 262° West 456 525 26,100 1,440 Climbing FlightAware
05:40PM 38.1100 -87.0840 261° West 474 545 27,200 1,680 Climbing FlightAware
05:41PM 38.0910 -87.2320 261° West 485 558 28,800 2,160 Climbing FlightAware
05:42PM 38.0760 -87.3540 261° West 478 550 30,700 2,340 Climbing FlightAware
05:43PM 38.0620 -87.4640 261° West 477 549 32,100 2,160 Climbing FlightAware
05:43PM 38.0490 -87.5630 261° West 469 540 33,500 1,800 Climbing FlightAware
05:44PM 38.0350 -87.6770 261° West 473 544 34,500 1,500 Climbing FlightAware
05:45PM 38.0200 -87.7910 261° West 469 540 35,600 1,080 Climbing FlightAware
05:45PM 38.0060 -87.9000 261° West 467 537 36,000 240 Climbing FlightAware
05:46PM 37.9910 -88.0130 260° West 464 534 36,000  Level FlightAware
05:47PM 37.9760 -88.1250 260° West 463 533 36,000  Level FlightAware
05:47PM 37.9600 -88.2400 260° West 464 534 36,000  Level FlightAware
05:48PM 37.9450 -88.3520 260° West 465 535 36,000  Level FlightAware
05:49PM 37.9300 -88.4600 260° West 466 536 36,000  Level FlightAware
05:49PM 37.9150 -88.5730 260° West 467 537 36,000  Level FlightAware
05:50PM 37.8980 -88.6950 260° West 468 539 36,000  Level FlightAware
05:51PM 37.8880 -88.7920 263° West 469 540 36,000  Level FlightAware
05:52PM 37.8890 -88.9260 271° West 470 541 36,000  Level FlightAware
05:52PM 37.8890 -89.0170 270° West 469 540 36,000  Level FlightAware
05:53PM 37.8900 -89.1390 271° West 469 540 36,000  Level FlightAware
05:54PM 37.8910 -89.2490 271° West 469 540 36,000  Level FlightAware
05:54PM 37.8920 -89.3560 271° West 468 539 36,000  Level FlightAware
05:55PM 37.8930 -89.4720 271° West 468 539 36,000  Level FlightAware
05:56PM 37.8930 -89.6240 270° West 468 539 36,000  Level FlightAware
05:57PM 37.8900 -89.7420 268° West 468 539 36,000  Level FlightAware
05:57PM 37.8870 -89.8280 267° West 468 539 36,000  Level FlightAware
05:58PM 37.8850 -89.9140 268° West 468 539 36,000  Level FlightAware
05:59PM 37.8820 -90.0260 268° West 468 539 36,000  Level FlightAware
05:59PM 37.8850 -90.1710 272° West 469 540 36,000  Level FlightAware
06:00PM 37.8840 -90.2560 269° West 469 540 36,000  Level FlightAware
06:01PM 37.8820 -90.3680 269° West 469 540 36,000  Level FlightAware
06:01PM 37.8810 -90.4540 269° West 469 540 36,000  Level FlightAware
06:02PM 37.8790 -90.5640 269° West 469 540 36,000  Level FlightAware
06:03PM 37.8780 -90.6480 269° West 469 540 36,000  Level FlightAware
06:03PM 37.8770 -90.7630 269° West 469 540 36,000 1,260 Level FlightAware
06:04PM 37.8580 -90.9820 264° West 459 528 38,000 1,380 Climbing FlightAware
06:05PM 37.8480 -91.0800 263° West 459 528 38,000  Level FlightAware
06:06PM 37.8370 -91.2060 264° West 460 529 38,000  Level FlightAware
06:06PM 37.8290 -91.2910 263° West 461 531 38,000  Level FlightAware
06:07PM 37.8180 -91.4080 263° West 460 529 38,000  Level FlightAware
06:08PM 37.8080 -91.5140 263° West 460 529 38,000  Level FlightAware
06:08PM 37.7980 -91.6120 263° West 460 529 38,000  Level FlightAware
06:09PM 37.7880 -91.7190 263° West 459 528 38,000  Level FlightAware
06:09PM 37.7770 -91.8290 263° West 458 527 38,000  Level FlightAware
06:10PM 37.7650 -91.9460 263° West 458 527 38,000  Level FlightAware
06:11PM 37.7470 -92.1210 263° West 457 526 38,000  Level FlightAware
06:12PM 37.7370 -92.2220 263° West 456 525 38,000  Level FlightAware
06:13PM 37.7260 -92.3270 262° West 456 525 38,000  Level FlightAware
06:13PM 37.7140 -92.4390 262° West 456 525 38,000  Level FlightAware
06:14PM 37.7030 -92.5480 263° West 455 524 38,000  Level FlightAware
06:15PM 37.6910 -92.6570 262° West 453 521 38,000  Level FlightAware
06:15PM 37.6790 -92.7730 263° West 454 522 38,000  Level FlightAware
06:16PM 37.6670 -92.8800 262° West 453 521 38,000  Level FlightAware
06:17PM 37.6570 -92.9720 262° West 453 521 38,000  Level FlightAware
06:17PM 37.6460 -93.0770 262° West 453 521 38,000  Level FlightAware
06:18PM 37.6330 -93.1880 262° West 453 521 38,000  Level FlightAware
06:19PM 37.6230 -93.2850 263° West 452 520 38,000  Level FlightAware
06:19PM 37.6110 -93.3860 262° West 452 520 38,000  Level FlightAware
06:22PM 37.5630 -93.8000 262° West 453 521 38,000  Level FlightAware
06:23PM 37.5430 -93.9760 262° West 453 521 38,000  Level FlightAware
06:24PM 37.5230 -94.1410 261° West 454 522 38,000  Level FlightAware
06:25PM 37.5110 -94.2450 262° West 454 522 38,000  Level FlightAware
06:26PM 37.4980 -94.3520 261° West 454 522 38,000  Level FlightAware
06:26PM 37.4830 -94.4680 261° West 455 524 38,000  Level FlightAware
06:27PM 37.4710 -94.5700 262° West 454 522 38,000  Level FlightAware
06:28PM 37.4560 -94.6870 261° West 454 522 38,000  Level FlightAware
06:28PM 37.4430 -94.7910 261° West 453 521 38,000  Level FlightAware
06:29PM 37.4320 -94.8840 262° West 452 520 38,000  Level FlightAware
06:30PM 37.4170 -94.9980 261° West 450 518 38,000  Level FlightAware
06:30PM 37.4040 -95.0990 261° West 449 517 38,000  Level FlightAware
06:31PM 37.3920 -95.1940 261° West 448 516 38,000  Level FlightAware
06:32PM 37.3790 -95.2960 261° West 448 516 38,000  Level FlightAware
06:32PM 37.3640 -95.4080 260° West 447 514 38,000  Level FlightAware
06:33PM 37.3510 -95.5100 261° West 447 514 38,000  Level FlightAware
06:34PM 37.3370 -95.6100 260° West 446 513 38,000  Level FlightAware
06:34PM 37.3220 -95.7250 261° West 445 512 38,000  Level FlightAware
06:35PM 37.3070 -95.8380 261° West 444 511 38,000  Level FlightAware
06:36PM 37.2940 -95.9290 260° West 444 511 38,000  Level FlightAware
06:36PM 37.2810 -96.0320 261° West 445 512 38,000  Level FlightAware
06:37PM 37.2660 -96.1340 260° West 445 512 38,000  Level FlightAware
06:38PM 37.2530 -96.2310 260° West 445 512 38,000  Level FlightAware
06:38PM 37.2390 -96.3310 260° West 445 512 38,000  Level FlightAware
06:39PM 37.2250 -96.4330 260° West 445 512 38,000  Level FlightAware
06:40PM 37.2100 -96.5370 260° West 446 513 38,000  Level FlightAware
06:40PM 37.1950 -96.6470 260° West 446 513 38,000  Level FlightAware
06:41PM 37.1790 -96.7580 260° West 446 513 38,000  Level FlightAware
06:42PM 37.1640 -96.8610 260° West 444 511 38,000  Level FlightAware
06:43PM 37.1480 -96.9730 260° West 445 512 38,000  Level FlightAware
06:43PM 37.1330 -97.0720 259° West 444 511 38,000  Level FlightAware
06:44PM 37.1170 -97.1830 260° West 445 512 38,000  Level FlightAware
06:45PM 37.1020 -97.2840 259° West 446 513 38,000  Level FlightAware
06:45PM 37.0850 -97.3970 259° West 446 513 38,000  Level FlightAware
06:46PM 37.0700 -97.4990 260° West 446 513 38,000  Level FlightAware
06:47PM 37.0550 -97.6000 259° West 445 512 38,000  Level FlightAware
06:47PM 37.0380 -97.7100 259° West 446 513 38,000  Level FlightAware
06:48PM 37.0210 -97.8230 259° West 447 514 38,000  Level FlightAware
06:49PM 37.0050 -97.9290 259° West 448 516 38,000  Level FlightAware
06:50PM 36.9880 -98.0400 259° West 448 516 38,000  Level FlightAware
06:50PM 36.9750 -98.1230 259° West 447 514 38,000  Level FlightAware
06:51PM 36.9580 -98.2330 259° West 446 513 38,000  Level FlightAware
06:52PM 36.9430 -98.3300 259° West 446 513 38,000  Level FlightAware
06:52PM 36.9280 -98.4210 258° West 443 510 38,000  Level FlightAware
06:53PM 36.9070 -98.5480 258° West 441 507 38,000  Level FlightAware
06:54PM 36.8860 -98.6750 258° West 441 507 38,000  Level FlightAware
06:55PM 36.8640 -98.8170 259° West 442 509 38,000  Level FlightAware
06:56PM 36.8470 -98.9190 258° West 442 509 38,000  Level FlightAware
06:56PM 36.8340 -98.9960 258° West 442 509 38,000  Level FlightAware
06:57PM 36.8110 -99.1460 259° West 442 509 38,000  Level FlightAware
06:58PM 36.7980 -99.2230 258° West 442 509 38,000  Level FlightAware
06:58PM 36.7800 -99.3240 257° West 442 509 38,000  Level FlightAware
06:59PM 36.7670 -99.4030 258° West 442 509 38,000  Level FlightAware
07:00PM 36.7490 -99.5050 258° West 442 509 38,000  Level FlightAware
07:00PM 36.7360 -99.5810 258° West 442 509 38,000  Level FlightAware
07:01PM 36.7230 -99.6580 258° West 442 509 38,000  Level FlightAware
07:02PM 36.7060 -99.7620 259° West 442 509 38,000  Level FlightAware
07:02PM 36.6930 -99.8380 258° West 442 509 38,000  Level FlightAware
07:03PM 36.6750 -99.9400 258° West 442 509 38,000  Level FlightAware
07:04PM 36.6620 -100.0160 258° West 442 509 38,000  Level FlightAware
07:05PM 36.6450 -100.1180 258° West 442 509 38,000  Level FlightAware
07:05PM 36.6320 -100.1940 258° West 442 509 38,000  Level FlightAware
07:06PM 36.6190 -100.2700 258° West 442 509 38,000  Level FlightAware
07:06PM 36.5686 -100.5606 258° West 454 522 38,000  Level Albuquerque Center
07:07PM 36.5558 -100.6311 257° West 454 522 38,000  Level Kansas City Center
07:08PM 36.5253 -100.8019 258° West 454 522 38,000  Level Kansas City Center
07:09PM 36.4986 -100.9511 258° West 457 526 38,000  Level Kansas City Center
07:10PM 36.4664 -101.1219 257° West 456 525 38,000  Level Kansas City Center
07:11PM 36.4403 -101.2697 258° West 456 525 38,000  Level Kansas City Center
07:12PM 36.4083 -101.4414 257° West 457 526 38,000  Level Kansas City Center
07:13PM 36.3817 -101.5872 257° West 459 528 38,000  Level Kansas City Center
07:14PM 36.3528 -101.7414 257° West 460 529 38,000  Level Kansas City Center
07:15PM 36.3181 -101.9244 257° West 458 527 38,000  Level Kansas City Center
07:16PM 36.2883 -102.0747 256° West 455 524 38,000  Level Kansas City Center
07:17PM 36.2600 -102.2275 257° West 456 525 38,000  Level Kansas City Center
07:19PM 36.2181 -102.4392 256° West 453 521 38,000  Level Albuquerque Center
07:20PM 36.1883 -102.5908 256° West 456 525 38,000  Level Albuquerque Center
07:21PM 36.1583 -102.7428 256° West 458 527 38,000  Level Albuquerque Center
07:22PM 36.1264 -102.9039 256° West 458 527 38,000  Level Albuquerque Center
07:23PM 36.0922 -103.0744 256° West 459 528 38,000  Level Albuquerque Center
07:24PM 36.0611 -103.2286 256° West 460 529 38,000  Level Albuquerque Center
07:25PM 36.0294 -103.3831 256° West 462 532 38,000  Level Albuquerque Center
07:26PM 35.9981 -103.5381 256° West 463 533 38,000  Level Albuquerque Center
07:27PM 35.9661 -103.6933 256° West 464 534 38,000  Level Albuquerque Center
07:28PM 35.9336 -103.8486 256° West 466 536 38,000  Level Albuquerque Center
07:29PM 35.9011 -104.0042 256° West 468 539 38,000  Level Albuquerque Center
07:30PM 35.8681 -104.1606 255° West 470 541 38,000  Level Albuquerque Center
07:31PM 35.8350 -104.3169 255° West 471 542 38,000  Level Albuquerque Center
07:32PM 35.8017 -104.4733 255° West 472 543 38,000  Level Albuquerque Center
07:33PM 35.7678 -104.6300 255° West 472 543 38,000  Level Albuquerque Center
07:34PM 35.7281 -104.8136 255° West 475 547 38,000  Level Albuquerque Center
07:35PM 35.6936 -104.9714 255° West 476 548 38,000  Level Albuquerque Center
07:40PM 35.5410 -105.8030 255° West 471 542 38,000  Level FlightAware
07:41PM 35.5240 -105.8990 258° West 470 541 38,000  Level FlightAware
07:42PM 35.5000 -106.0220 257° West 471 542 38,000  Level FlightAware
07:42PM 35.4800 -106.1280 257° West 473 544 38,000  Level FlightAware
07:43PM 35.4630 -106.2210 257° West 473 544 38,000  Level FlightAware
07:44PM 35.4410 -106.3360 257° West 474 545 38,000  Level FlightAware
07:44PM 35.4210 -106.4410 257° West 475 547 38,000  Level FlightAware
07:45PM 35.4020 -106.5340 256° West 476 548 38,000  Level FlightAware
07:46PM 35.3820 -106.6400 257° West 477 549 38,000  Level FlightAware
07:46PM 35.3590 -106.7550 256° West 478 550 38,000  Level FlightAware
07:47PM 35.3400 -106.8560 257° West 479 551 38,000  Level FlightAware
07:48PM 35.3160 -106.9760 256° West 478 550 38,000  Level FlightAware
07:48PM 35.2950 -107.0810 256° West 479 551 38,000  Level FlightAware
07:49PM 35.2710 -107.2020 256° West 480 552 38,000 -180 Level FlightAware
07:50PM 35.2500 -107.3070 256° West 476 548 37,800 -720 Descending FlightAware
07:51PM 35.2270 -107.4210 256° West 479 551 37,000 -600 Descending FlightAware
07:51PM 35.2050 -107.5280 256° West 484 557 37,000  Level FlightAware
07:52PM 35.1860 -107.6250 257° West 483 556 37,000 -540 Level FlightAware
07:53PM 35.1600 -107.7490 256° West 481 554 36,300 -720 Descending FlightAware
07:53PM 35.1390 -107.8540 256° West 481 554 36,000 -240 Descending FlightAware
07:54PM 35.1150 -107.9720 256° West 486 559 36,000  Level FlightAware
07:55PM 35.0970 -108.0530 255° West 486 559 36,000  Level FlightAware
07:55PM 35.0730 -108.1610 255° West 486 559 36,000  Level FlightAware
07:56PM 35.0560 -108.2420 256° West 486 559 36,000  Level FlightAware
07:57PM 35.0320 -108.3500 255° West 486 559 36,000  Level FlightAware
07:57PM 35.0140 -108.4310 255° West 486 559 36,000  Level FlightAware
07:58PM 34.9690 -108.6640 257° West 496 571 36,000  Level FlightAware
07:59PM 34.9420 -108.7860 255° West 496 571 36,000  Level FlightAware
08:00PM 34.9170 -108.9080 256° West 494 568 36,000  Level FlightAware
08:01PM 34.8910 -109.0280 255° West 491 565 36,000  Level FlightAware
08:01PM 34.8670 -109.1370 255° West 488 562 36,000  Level FlightAware
08:02PM 34.8400 -109.2590 255° West 486 559 36,000 -180 Level FlightAware
08:03PM 34.8170 -109.3630 255° West 486 559 35,800 -840 Descending FlightAware
08:03PM 34.7920 -109.4800 255° West 490 564 34,900 -1,320 Descending FlightAware
08:04PM 34.7730 -109.5640 255° West 492 566 34,200 -1,200 Descending FlightAware
08:05PM 34.7460 -109.6840 255° West 490 564 33,400 -1,200 Descending FlightAware
08:05PM 34.7230 -109.7890 255° West 490 564 32,600 -1,140 Descending FlightAware
08:06PM 34.6970 -109.8830 251° West 493 567 32,000 -480 Descending FlightAware
08:07PM 34.6630 -109.9840 248° West 488 562 32,000  Level FlightAware
08:07PM 34.6220 -110.0920 245° Southwest 488 562 32,000  Level FlightAware
08:08PM 34.5830 -110.1920 245° Southwest 488 562 32,000 -840 Level FlightAware
08:09PM 34.5430 -110.2960 245° Southwest 480 552 30,900 -1,800 Descending FlightAware
08:09PM 34.5020 -110.4040 245° Southwest 467 537 29,400 -1,980 Descending FlightAware
08:10PM 34.4680 -110.4940 245° Southwest 458 527 28,200 -1,440 Descending FlightAware
08:11PM 34.4260 -110.6060 246° West 452 520 27,300 -2,040 Descending FlightAware
08:12PM 34.3940 -110.6930 246° West 442 509 25,300 -2,460 Descending FlightAware
08:12PM 34.3480 -110.7980 242° Southwest 430 495 23,900 -1,920 Descending FlightAware
08:13PM 34.2850 -110.8860 229° Southwest 424 488 22,200 -2,040 Descending FlightAware
08:14PM 34.2210 -110.9680 227° Southwest 426 490 20,300 -1,920 Descending FlightAware
08:15PM 34.1750 -111.0260 226° Southwest 415 478 19,300 -1,800 Descending FlightAware
08:16PM 34.1100 -111.1110 227° Southwest 403 464 17,800 -1,560 Descending FlightAware
08:16PM 34.0610 -111.1730 226° Southwest 387 445 17,000 -1,440 Descending FlightAware
08:17PM 34.0100 -111.2390 227° Southwest 351 404 15,900 -1,860 Descending FlightAware
08:18PM 33.9700 -111.2900 227° Southwest 332 382 14,500 -1,920 Descending FlightAware
08:18PM 33.9330 -111.3370 227° Southwest 329 379 13,600 -1,440 Descending FlightAware
08:19PM 33.8650 -111.4180 225° Southwest 316 364 12,300 -1,680 Descending FlightAware
08:20PM 33.8300 -111.4480 215° Southwest 307 353 11,000 -2,220 Descending FlightAware
08:20PM 33.7940 -111.4710 208° Southwest 301 346 9,900 -2,280 Descending FlightAware
08:21PM 33.7530 -111.4850 196° South 294 338 8,700 -1,800 Descending FlightAware
08:21PM 33.7160 -111.4980 196° South 286 329 8,100 -660 Descending FlightAware
08:22PM 33.6770 -111.5120 197° South 285 328 8,100  Level FlightAware
08:22PM 33.6440 -111.5240 197° South 287 330 8,100  Level FlightAware
08:23PM 33.6110 -111.5350 196° South 290 334 8,100  Level FlightAware
08:23PM 33.5830 -111.5450 197° South 287 330 8,100 -420 Level FlightAware
08:23PM 33.5540 -111.5610 205° Southwest 284 327 7,800 -1,260 Descending FlightAware
08:24PM 33.5180 -111.5830 207° Southwest 285 328 7,000 -1,680 Descending FlightAware
08:24PM 33.4990 -111.5940 206° Southwest 277 319 6,500 -1,200 Descending FlightAware
08:25PM 33.4710 -111.6240 222° Southwest 261 300 6,100 -480 Descending FlightAware
08:25PM 33.4580 -111.6530 242° Southwest 259 298 6,100 -480 Level FlightAware
08:25PM 33.4380 -111.6950 240° Southwest 251 289 5,700 -1,020 Descending FlightAware
08:26PM 33.4280 -111.7300 251° West 245 282 5,200 -1,020 Descending FlightAware
08:27PM 33.4280 -111.7820 270° West 221 254 4,600 -960 Descending FlightAware
08:27PM 33.4280 -111.8080 270° West 201 231 4,200 -1,080 Descending FlightAware
08:27PM 33.4290 -111.8370 272° West 190 219 3,700 -1,020 Descending FlightAware
08:28PM 33.4290 -111.8520 270° West 191 220 3,500 -960 Descending FlightAware
08:28PM 33.4290 -111.8830 270° West 189 217 3,000 -960 Descending FlightAware
08:29PM 33.4290 -111.9070 270° West 181 208 2,700 -900 Descending FlightAware
08:29PM 33.4290 -111.9390 270° West 162 186 2,200 -900 Descending FlightAware
08:30PM 33.4290 -111.9630 270° West 152 175 1,800 -780 Descending FlightAware
08:30PM 33.4290 -111.9720 270° West 147 169 1,700 -240 Descending FlightAware
08:30PM 33.4290 -111.9980 270° West 148 170 1,600 -180 Descending FlightAware
08:33PM 33.4280 -112.0180 267° West 26 30 -720 Descending FlightAware
08:33PM 33.4260 -112.0150 129° Southeast 26 30  Level FlightAware
08:38PM 33.4333 -112.0000 287° West  Level FlightAware Approximate